Hozan Maru — JJ4010 — position and weather

sailwx.info

Track history (hours):
 
Tides and Currents Weather Stations Pressure Air Temp Water Temp Dewpoint Dewpoint Depression Visibility Wind Speed Wind Dir Waves Ship Positions

Hozan Maru

Last reported at 2014-Oct-23 06:33 UTC. Time now 2014-Oct-23 10:08 UTC.
Position N 34°39' E 135°26'.

Length 38 m; draft 3.6 m.

Type: Tug. MMSI: 431401501.

Date/timePositionNaut miles runAvg speedWind from/ knotsBaromVisibWave heightAir tempDewpointWater temp
2014-Oct-23 06:33N 34°39' E 135°26'1212.2
2014-Oct-23 05:33N 34°37' E 135°11'1414.0
2014-Oct-23 04:32N 34°38' E 134°54'6 0.8
2014-Oct-22 21:28N 34°40' E 134°48'9 0.6
2014-Oct-22 05:33N 34°38' E 134°58'1111.3
2014-Oct-22 04:33N 34°38' E 135°12'4 3.7
2014-Oct-22 03:33N 34°41' E 135°15'4 3.7
2014-Oct-22 02:33N 34°39' E 135°19'3 3.0
2014-Oct-22 01:33N 34°38' E 135°23'2 1.7
2014-Oct-22 00:33N 34°39' E 135°25'1 0.6
2014-Oct-21 23:33N 34°39' E 135°24'0 0.1
2014-Oct-21 22:33N 34°39' E 135°24'3 0.1
2014-Oct-20 09:05N 34°40' E 135°27'510.4
2014-Oct-20 08:33N 34°36' E 135°23'6 6.0
2014-Oct-20 07:33N 34°32' E 135°17'6 5.7
2014-Oct-20 06:33N 34°34' E 135°11'6 6.0
2014-Oct-20 05:33N 34°35' E 135°04'7 5.6
2014-Oct-20 04:19N 34°36' E 134°56'12 4.0
2014-Oct-20 01:16N 34°40' E 134°42'12 2.6
2014-Oct-19 20:34N 34°38' E 134°56'1312.9
2014-Oct-19 19:33N 34°40' E 135°11'3 0.3
2014-Oct-19 10:33N 34°38' E 135°15'1110.6
2014-Oct-19 09:33N 34°31' E 135°25'0 0.0
2014-Oct-19 08:33N 34°31' E 135°24'3 3.3
2014-Oct-19 07:33N 34°33' E 135°21'5 5.4
2014-Oct-19 06:33N 34°34' E 135°14'5 5.2
2014-Oct-19 05:33N 34°35' E 135°08'6 5.7
2014-Oct-19 04:33N 34°37' E 135°02'6 5.4
2014-Oct-19 03:30N 34°36' E 134°55'11 3.6
2014-Oct-19 00:24N 34°40' E 134°42'10 0.6
2014-Oct-18 06:30N 34°38' E 134°54'1213.3
2014-Oct-18 05:33N 34°37' E 135°09'1312.5
2014-Oct-18 04:33N 34°39' E 135°24'2 0.1
2014-Oct-17 10:27N 34°40' E 135°26'8 8.8
2014-Oct-17 09:32N 34°32' E 135°24'0 0.2
2014-Oct-17 07:26N 34°31' E 135°24'6 6.8
2014-Oct-17 06:31N 34°26' E 135°19'1 0.7
2014-Oct-17 05:33N 34°26' E 135°19'7 6.5
2014-Oct-17 04:27N 34°33' E 135°22'4 4.8
2014-Oct-17 03:31N 34°35' E 135°27'4 3.8
2014-Oct-17 02:33N 34°37' E 135°23'1 1.3
2014-Oct-17 01:33N 34°36' E 135°24'0 0.0
2014-Oct-17 00:33N 34°36' E 135°24'0 0.0
2014-Oct-16 23:33N 34°36' E 135°24'5 4.8
2014-Oct-16 22:30N 34°31' E 135°23'2 2.5
2014-Oct-16 21:33N 34°33' E 135°22'4 0.3
2014-Oct-16 05:33N 34°37' E 135°24'4 4.1
2014-Oct-16 04:31N 34°33' E 135°26'0 0.2
2014-Oct-16 03:33N 34°33' E 135°26'5 4.7
2014-Oct-16 02:33N 34°34' E 135°20'4 4.4
2014-Oct-16 01:33N 34°37' E 135°23'2 0.2
2014-Oct-15 09:33N 34°39' E 135°26'0 0.1
2014-Oct-15 08:33N 34°39' E 135°26'0 0.4
2014-Oct-15 07:32N 34°39' E 135°26'0 0.0
2014-Oct-15 06:33N 34°39' E 135°26'0 0.0
2014-Oct-15 05:33N 34°39' E 135°26'0 0.0
2014-Oct-15 04:33N 34°39' E 135°26'0 0.0
2014-Oct-15 03:33N 34°39' E 135°26'2 1.8
2014-Oct-15 02:33N 34°38' E 135°24'2 1.5
2014-Oct-15 01:30N 34°37' E 135°22'3 2.7
2014-Oct-15 00:33N 34°38' E 135°19'4 3.7
2014-Oct-14 23:33N 34°41' E 135°16'2 1.5
2014-Oct-14 22:33N 34°41' E 135°18'7 0.5
2014-Oct-14 08:14N 34°39' E 135°25'1 1.2
2014-Oct-14 07:33N 34°39' E 135°24'1 1.3
2014-Oct-14 06:33N 34°39' E 135°26'0 0.0
2014-Oct-14 05:33N 34°39' E 135°26'0 0.0
2014-Oct-14 04:33N 34°39' E 135°26'1 1.4
2014-Oct-14 03:33N 34°39' E 135°24'  
Track history (hours):
 
Tides and Currents Weather Stations Pressure Air Temp Water Temp Dewpoint Dewpoint Depression Visibility Wind Speed Wind Dir Waves Ship Positions

Hozan Maru

Last reported at 2014-Oct-23 06:33 UTC. Time now 2014-Oct-23 10:08 UTC.
Position N 34°39' E 135°26'.

Length 38 m; draft 3.6 m.

Type: Tug. MMSI: 431401501.

Date/timePositionNaut miles runAvg speedWind from/ knotsBaromVisibWave heightAir tempDewpointWater temp
2014-Oct-23 06:33N 34°39' E 135°26'1212.2
2014-Oct-23 05:33N 34°37' E 135°11'1414.0
2014-Oct-23 04:32N 34°38' E 134°54'6 0.8
2014-Oct-22 21:28N 34°40' E 134°48'9 0.6
2014-Oct-22 05:33N 34°38' E 134°58'1111.3
2014-Oct-22 04:33N 34°38' E 135°12'4 3.7
2014-Oct-22 03:33N 34°41' E 135°15'4 3.7
2014-Oct-22 02:33N 34°39' E 135°19'3 3.0
2014-Oct-22 01:33N 34°38' E 135°23'2 1.7
2014-Oct-22 00:33N 34°39' E 135°25'1 0.6
2014-Oct-21 23:33N 34°39' E 135°24'0 0.1
2014-Oct-21 22:33N 34°39' E 135°24'3 0.1
2014-Oct-20 09:05N 34°40' E 135°27'510.4
2014-Oct-20 08:33N 34°36' E 135°23'6 6.0
2014-Oct-20 07:33N 34°32' E 135°17'6 5.7
2014-Oct-20 06:33N 34°34' E 135°11'6 6.0
2014-Oct-20 05:33N 34°35' E 135°04'7 5.6
2014-Oct-20 04:19N 34°36' E 134°56'12 4.0
2014-Oct-20 01:16N 34°40' E 134°42'12 2.6
2014-Oct-19 20:34N 34°38' E 134°56'1312.9
2014-Oct-19 19:33N 34°40' E 135°11'3 0.3
2014-Oct-19 10:33N 34°38' E 135°15'1110.6
2014-Oct-19 09:33N 34°31' E 135°25'0 0.0
2014-Oct-19 08:33N 34°31' E 135°24'3 3.3
2014-Oct-19 07:33N 34°33' E 135°21'5 5.4
2014-Oct-19 06:33N 34°34' E 135°14'5 5.2
2014-Oct-19 05:33N 34°35' E 135°08'6 5.7
2014-Oct-19 04:33N 34°37' E 135°02'6 5.4
2014-Oct-19 03:30N 34°36' E 134°55'11 3.6
2014-Oct-19 00:24N 34°40' E 134°42'10 0.6
2014-Oct-18 06:30N 34°38' E 134°54'1213.3
2014-Oct-18 05:33N 34°37' E 135°09'1312.5
2014-Oct-18 04:33N 34°39' E 135°24'2 0.1
2014-Oct-17 10:27N 34°40' E 135°26'8 8.8
2014-Oct-17 09:32N 34°32' E 135°24'0 0.2
2014-Oct-17 07:26N 34°31' E 135°24'6 6.8
2014-Oct-17 06:31N 34°26' E 135°19'1 0.7
2014-Oct-17 05:33N 34°26' E 135°19'7 6.5
2014-Oct-17 04:27N 34°33' E 135°22'4 4.8
2014-Oct-17 03:31N 34°35' E 135°27'4 3.8
2014-Oct-17 02:33N 34°37' E 135°23'1 1.3
2014-Oct-17 01:33N 34°36' E 135°24'0 0.0
2014-Oct-17 00:33N 34°36' E 135°24'0 0.0
2014-Oct-16 23:33N 34°36' E 135°24'5 4.8
2014-Oct-16 22:30N 34°31' E 135°23'2 2.5
2014-Oct-16 21:33N 34°33' E 135°22'4 0.3
2014-Oct-16 05:33N 34°37' E 135°24'4 4.1
2014-Oct-16 04:31N 34°33' E 135°26'0 0.2
2014-Oct-16 03:33N 34°33' E 135°26'5 4.7
2014-Oct-16 02:33N 34°34' E 135°20'4 4.4
2014-Oct-16 01:33N 34°37' E 135°23'2 0.2
2014-Oct-15 09:33N 34°39' E 135°26'0 0.1
2014-Oct-15 08:33N 34°39' E 135°26'0 0.4
2014-Oct-15 07:32N 34°39' E 135°26'0 0.0
2014-Oct-15 06:33N 34°39' E 135°26'0 0.0
2014-Oct-15 05:33N 34°39' E 135°26'0 0.0
2014-Oct-15 04:33N 34°39' E 135°26'0 0.0
2014-Oct-15 03:33N 34°39' E 135°26'2 1.8
2014-Oct-15 02:33N 34°38' E 135°24'2 1.5
2014-Oct-15 01:30N 34°37' E 135°22'3 2.7
2014-Oct-15 00:33N 34°38' E 135°19'4 3.7
2014-Oct-14 23:33N 34°41' E 135°16'2 1.5
2014-Oct-14 22:33N 34°41' E 135°18'7 0.5
2014-Oct-14 08:14N 34°39' E 135°25'1 1.2
2014-Oct-14 07:33N 34°39' E 135°24'1 1.3
2014-Oct-14 06:33N 34°39' E 135°26'0 0.0
2014-Oct-14 05:33N 34°39' E 135°26'0 0.0
2014-Oct-14 04:33N 34°39' E 135°26'1 1.4
2014-Oct-14 03:33N 34°39' E 135°24'  

Dump ship's entire track history